sensor_id;sensor_type;location;lat;lon;timestamp;pressure;altitude;pressure_sealevel;temperature;humidity
33280;BME280;20403;43.114;12.434;2023-01-31T00:00:01;99336.00;;;6.75;100.00
33280;BME280;20403;43.114;12.434;2023-01-31T00:02:26;99333.16;;;6.70;100.00
33280;BME280;20403;43.114;12.434;2023-01-31T00:04:52;99336.97;;;6.74;100.00
33280;BME280;20403;43.114;12.434;2023-01-31T00:07:17;99337.34;;;6.71;100.00
33280;BME280;20403;43.114;12.434;2023-01-31T00:09:43;99342.16;;;6.74;100.00
33280;BME280;20403;43.114;12.434;2023-01-31T00:12:08;99343.34;;;6.71;100.00
33280;BME280;20403;43.114;12.434;2023-01-31T00:14:33;99345.53;;;6.68;100.00
33280;BME280;20403;43.114;12.434;2023-01-31T00:16:59;99345.84;;;6.58;100.00
33280;BME280;20403;43.114;12.434;2023-01-31T00:19:24;99352.81;;;6.58;100.00
33280;BME280;20403;43.114;12.434;2023-01-31T00:21:49;99345.59;;;6.53;100.00
33280;BME280;20403;43.114;12.434;2023-01-31T00:24:15;99356.53;;;6.48;100.00
33280;BME280;20403;43.114;12.434;2023-01-31T00:26:41;99361.91;;;6.47;100.00
33280;BME280;20403;43.114;12.434;2023-01-31T00:29:06;99357.59;;;6.54;100.00
33280;BME280;20403;43.114;12.434;2023-01-31T00:31:33;99356.63;;;6.62;100.00
33280;BME280;20403;43.114;12.434;2023-01-31T00:33:59;99359.63;;;6.59;100.00
33280;BME280;20403;43.114;12.434;2023-01-31T00:36:29;99371.13;;;6.56;100.00
33280;BME280;20403;43.114;12.434;2023-01-31T00:38:57;99370.72;;;6.52;100.00
33280;BME280;20403;43.114;12.434;2023-01-31T00:41:24;99376.66;;;6.46;100.00
33280;BME280;20403;43.114;12.434;2023-01-31T00:43:50;99377.16;;;6.35;100.00
33280;BME280;20403;43.114;12.434;2023-01-31T00:46:16;99375.66;;;6.47;100.00
33280;BME280;20403;43.114;12.434;2023-01-31T00:48:41;99378.66;;;6.51;100.00
33280;BME280;20403;43.114;12.434;2023-01-31T00:51:07;99369.09;;;6.51;100.00
33280;BME280;20403;43.114;12.434;2023-01-31T00:53:33;99368.13;;;6.52;100.00
33280;BME280;20403;43.114;12.434;2023-01-31T00:56:19;99368.63;;;6.41;100.00
33280;BME280;20403;43.114;12.434;2023-01-31T00:58:45;99369.69;;;6.25;100.00
33280;BME280;20403;43.114;12.434;2023-01-31T01:01:13;99369.03;;;6.17;100.00
33280;BME280;20403;43.114;12.434;2023-01-31T01:03:40;99358.13;;;6.21;100.00
33280;BME280;20403;43.114;12.434;2023-01-31T01:06:06;99353.75;;;6.22;100.00
33280;BME280;20403;43.114;12.434;2023-01-31T01:08:33;99361.16;;;6.25;100.00
33280;BME280;20403;43.114;12.434;2023-01-31T01:11:12;99360.47;;;6.16;100.00
33280;BME280;20403;43.114;12.434;2023-01-31T01:13:38;99360.47;;;6.16;100.00
33280;BME280;20403;43.114;12.434;2023-01-31T01:16:09;99355.53;;;6.00;100.00
33280;BME280;20403;43.114;12.434;2023-01-31T01:18:36;99354.03;;;6.05;100.00
33280;BME280;20403;43.114;12.434;2023-01-31T01:21:09;99355.44;;;5.93;100.00
33280;BME280;20403;43.114;12.434;2023-01-31T01:23:36;99366.91;;;5.84;100.00
33280;BME280;20403;43.114;12.434;2023-01-31T01:26:02;99362.66;;;5.76;100.00
33280;BME280;20403;43.114;12.434;2023-01-31T01:28:32;99362.41;;;5.71;100.00
33280;BME280;20403;43.114;12.434;2023-01-31T01:31:02;99372.94;;;5.69;100.00
33280;BME280;20403;43.114;12.434;2023-01-31T01:33:29;99374.50;;;5.49;100.00
33280;BME280;20403;43.114;12.434;2023-01-31T01:36:02;99371.66;;;5.44;100.00
33280;BME280;20403;43.114;12.434;2023-01-31T01:38:28;99374.25;;;5.44;100.00
33280;BME280;20403;43.114;12.434;2023-01-31T01:40:54;99382.47;;;5.33;100.00
33280;BME280;20403;43.114;12.434;2023-01-31T01:43:19;99369.09;;;5.14;100.00
33280;BME280;20403;43.114;12.434;2023-01-31T01:45:45;99373.13;;;5.02;100.00
33280;BME280;20403;43.114;12.434;2023-01-31T01:48:14;99374.63;;;4.96;100.00
33280;BME280;20403;43.114;12.434;2023-01-31T01:50:46;99373.31;;;4.86;100.00
33280;BME280;20403;43.114;12.434;2023-01-31T01:53:17;99386.66;;;4.74;100.00
33280;BME280;20403;43.114;12.434;2023-01-31T01:56:12;99378.28;;;4.72;100.00
33280;BME280;20403;43.114;12.434;2023-01-31T01:58:50;99385.13;;;4.65;100.00
33280;BME280;20403;43.114;12.434;2023-01-31T02:01:18;99382.56;;;4.65;100.00
33280;BME280;20403;43.114;12.434;2023-01-31T02:03:45;99385.56;;;4.54;100.00
33280;BME280;20403;43.114;12.434;2023-01-31T02:06:12;99390.78;;;4.46;100.00
33280;BME280;20403;43.114;12.434;2023-01-31T02:08:39;99405.88;;;4.34;100.00
33280;BME280;20403;43.114;12.434;2023-01-31T02:11:16;99400.56;;;4.35;100.00
33280;BME280;20403;43.114;12.434;2023-01-31T02:13:45;99402.78;;;4.38;100.00
33280;BME280;20403;43.114;12.434;2023-01-31T02:16:11;99402.78;;;4.38;100.00
33280;BME280;20403;43.114;12.434;2023-01-31T02:18:37;99417.31;;;4.39;100.00
33280;BME280;20403;43.114;12.434;2023-01-31T02:21:35;99417.94;;;4.18;100.00
33280;BME280;20403;43.114;12.434;2023-01-31T02:24:14;99420.13;;;4.07;100.00
33280;BME280;20403;43.114;12.434;2023-01-31T02:30:20;99418.47;;;3.83;100.00
33280;BME280;20403;43.114;12.434;2023-01-31T02:40:24;99430.72;;;3.49;100.00
33280;BME280;20403;43.114;12.434;2023-01-31T02:46:13;99437.69;;;3.41;100.00
33280;BME280;20403;43.114;12.434;2023-01-31T02:51:29;99428.69;;;3.36;100.00
33280;BME280;20403;43.114;12.434;2023-01-31T02:54:19;99434.38;;;3.24;100.00
33280;BME280;20403;43.114;12.434;2023-01-31T02:56:48;99431.94;;;3.22;100.00
33280;BME280;20403;43.114;12.434;2023-01-31T02:59:20;99445.78;;;3.21;100.00
33280;BME280;20403;43.114;12.434;2023-01-31T03:01:58;99440.84;;;3.03;100.00
33280;BME280;20403;43.114;12.434;2023-01-31T03:04:29;99441.66;;;3.12;100.00
33280;BME280;20403;43.114;12.434;2023-01-31T03:07:03;99455.81;;;3.08;100.00
33280;BME280;20403;43.114;12.434;2023-01-31T03:10:15;99447.28;;;3.07;100.00
33280;BME280;20403;43.114;12.434;2023-01-31T03:18:46;99472.75;;;2.94;100.00
33280;BME280;20403;43.114;12.434;2023-01-31T03:21:18;99482.09;;;2.87;100.00
33280;BME280;20403;43.114;12.434;2023-01-31T03:23:49;99479.81;;;2.92;100.00
33280;BME280;20403;43.114;12.434;2023-01-31T03:26:16;99480.13;;;2.97;100.00
33280;BME280;20403;43.114;12.434;2023-01-31T03:28:45;99467.44;;;2.87;100.00
33280;BME280;20403;43.114;12.434;2023-01-31T03:31:18;99474.38;;;2.87;100.00
33280;BME280;20403;43.114;12.434;2023-01-31T03:33:53;99487.06;;;2.88;100.00
33280;BME280;20403;43.114;12.434;2023-01-31T03:41:56;99471.28;;;2.83;100.00
33280;BME280;20403;43.114;12.434;2023-01-31T03:50:02;99475.97;;;2.88;100.00
33280;BME280;20403;43.114;12.434;2023-01-31T03:52:36;99487.72;;;2.82;100.00
33280;BME280;20403;43.114;12.434;2023-01-31T03:55:14;99489.66;;;2.72;100.00
33280;BME280;20403;43.114;12.434;2023-01-31T07:04:00;99632.78;;;1.10;100.00
33280;BME280;20403;43.114;12.434;2023-01-31T07:06:26;99632.69;;;1.19;100.00
33280;BME280;20403;43.114;12.434;2023-01-31T07:08:51;99632.91;;;1.26;100.00
33280;BME280;20403;43.114;12.434;2023-01-31T07:11:17;99637.59;;;1.31;100.00
33280;BME280;20403;43.114;12.434;2023-01-31T07:13:42;99645.88;;;1.24;100.00
33280;BME280;20403;43.114;12.434;2023-01-31T07:16:10;99637.16;;;1.17;100.00
33280;BME280;20403;43.114;12.434;2023-01-31T07:18:35;99645.31;;;1.13;100.00
33280;BME280;20403;43.114;12.434;2023-01-31T07:21:01;99639.16;;;1.23;100.00
33280;BME280;20403;43.114;12.434;2023-01-31T07:23:26;99650.00;;;1.17;100.00
33280;BME280;20403;43.114;12.434;2023-01-31T07:25:51;99648.03;;;1.11;100.00
33280;BME280;20403;43.114;12.434;2023-01-31T07:28:17;99649.88;;;1.37;100.00
33280;BME280;20403;43.114;12.434;2023-01-31T07:30:42;99650.50;;;1.83;100.00
33280;BME280;20403;43.114;12.434;2023-01-31T07:33:10;99651.28;;;2.44;100.00
33280;BME280;20403;43.114;12.434;2023-01-31T07:35:35;99655.34;;;3.22;100.00
33280;BME280;20403;43.114;12.434;2023-01-31T07:38:01;99655.94;;;3.81;100.00
33280;BME280;20403;43.114;12.434;2023-01-31T07:40:26;99656.41;;;4.49;100.00
33280;BME280;20403;43.114;12.434;2023-01-31T07:42:57;99658.06;;;5.27;100.00
33280;BME280;20403;43.114;12.434;2023-01-31T07:45:22;99658.53;;;5.68;100.00
33280;BME280;20403;43.114;12.434;2023-01-31T07:47:48;99664.44;;;5.54;100.00
33280;BME280;20403;43.114;12.434;2023-01-31T07:50:13;99664.13;;;5.34;100.00
33280;BME280;20403;43.114;12.434;2023-01-31T07:52:39;99659.81;;;5.26;100.00
33280;BME280;20403;43.114;12.434;2023-01-31T07:55:04;99671.19;;;5.17;100.00
33280;BME280;20403;43.114;12.434;2023-01-31T07:57:30;99671.38;;;5.39;100.00
33280;BME280;20403;43.114;12.434;2023-01-31T07:59:56;99665.72;;;5.35;100.00
33280;BME280;20403;43.114;12.434;2023-01-31T08:02:21;99664.53;;;5.46;100.00
33280;BME280;20403;43.114;12.434;2023-01-31T08:05:06;99669.75;;;5.38;100.00
33280;BME280;20403;43.114;12.434;2023-01-31T08:07:32;99680.03;;;5.46;100.00
33280;BME280;20403;43.114;12.434;2023-01-31T08:09:58;99683.47;;;5.38;100.00
33280;BME280;20403;43.114;12.434;2023-01-31T08:12:23;99679.47;;;5.36;100.00
33280;BME280;20403;43.114;12.434;2023-01-31T08:14:48;99684.31;;;5.39;100.00
33280;BME280;20403;43.114;12.434;2023-01-31T08:17:14;99687.03;;;5.60;100.00
33280;BME280;20403;43.114;12.434;2023-01-31T08:19:39;99689.03;;;5.73;100.00
33280;BME280;20403;43.114;12.434;2023-01-31T08:22:05;99695.66;;;5.76;100.00
33280;BME280;20403;43.114;12.434;2023-01-31T08:24:31;99698.88;;;5.78;100.00
33280;BME280;20403;43.114;12.434;2023-01-31T08:26:57;99711.03;;;5.92;100.00
33280;BME280;20403;43.114;12.434;2023-01-31T08:29:22;99703.94;;;6.09;100.00
33280;BME280;20403;43.114;12.434;2023-01-31T08:31:49;99713.06;;;6.20;100.00
33280;BME280;20403;43.114;12.434;2023-01-31T08:34:14;99713.31;;;6.25;100.00
33280;BME280;20403;43.114;12.434;2023-01-31T08:36:39;99717.59;;;6.18;100.00
33280;BME280;20403;43.114;12.434;2023-01-31T08:39:05;99721.81;;;6.48;100.00
33280;BME280;20403;43.114;12.434;2023-01-31T08:41:32;99718.84;;;6.66;100.00
33280;BME280;20403;43.114;12.434;2023-01-31T08:43:58;99718.66;;;6.83;100.00
33280;BME280;20403;43.114;12.434;2023-01-31T08:46:29;99717.25;;;7.02;100.00
33280;BME280;20403;43.114;12.434;2023-01-31T08:48:55;99719.44;;;7.20;100.00
33280;BME280;20403;43.114;12.434;2023-01-31T08:51:21;99720.00;;;7.36;100.00
33280;BME280;20403;43.114;12.434;2023-01-31T08:53:47;99716.25;;;7.61;100.00
33280;BME280;20403;43.114;12.434;2023-01-31T08:56:13;99721.91;;;7.71;100.00
33280;BME280;20403;43.114;12.434;2023-01-31T08:58:41;99717.00;;;7.83;100.00
33280;BME280;20403;43.114;12.434;2023-01-31T09:01:12;99727.94;;;7.99;100.00
33280;BME280;20403;43.114;12.434;2023-01-31T09:03:38;99726.81;;;8.15;100.00
33280;BME280;20403;43.114;12.434;2023-01-31T09:06:11;99733.72;;;8.30;100.00
33280;BME280;20403;43.114;12.434;2023-01-31T09:08:38;99734.44;;;8.45;100.00
33280;BME280;20403;43.114;12.434;2023-01-31T09:11:03;99736.72;;;8.61;100.00
33280;BME280;20403;43.114;12.434;2023-01-31T09:13:29;99734.94;;;8.62;100.00
33280;BME280;20403;43.114;12.434;2023-01-31T09:16:05;99738.41;;;8.76;100.00
33280;BME280;20403;43.114;12.434;2023-01-31T09:18:32;99744.03;;;8.86;100.00
33280;BME280;20403;43.114;12.434;2023-01-31T09:21:06;99742.31;;;9.07;100.00
33280;BME280;20403;43.114;12.434;2023-01-31T09:23:32;99747.06;;;9.03;100.00
33280;BME280;20403;43.114;12.434;2023-01-31T09:25:58;99751.94;;;9.13;100.00
33280;BME280;20403;43.114;12.434;2023-01-31T09:28:23;99738.38;;;9.44;100.00
33280;BME280;20403;43.114;12.434;2023-01-31T09:30:50;99746.22;;;9.71;100.00
33280;BME280;20403;43.114;12.434;2023-01-31T09:33:18;99758.63;;;9.88;100.00
33280;BME280;20403;43.114;12.434;2023-01-31T09:35:57;99756.22;;;10.00;100.00
33280;BME280;20403;43.114;12.434;2023-01-31T09:38:23;99755.44;;;10.00;100.00
33280;BME280;20403;43.114;12.434;2023-01-31T09:40:48;99757.22;;;10.39;100.00
33280;BME280;20403;43.114;12.434;2023-01-31T09:43:16;99761.19;;;10.48;100.00
33280;BME280;20403;43.114;12.434;2023-01-31T09:45:44;99768.53;;;10.85;100.00
33280;BME280;20403;43.114;12.434;2023-01-31T09:48:18;99777.59;;;10.76;100.00
33280;BME280;20403;43.114;12.434;2023-01-31T09:50:49;99782.03;;;11.13;100.00
33280;BME280;20403;43.114;12.434;2023-01-31T09:53:19;99785.72;;;11.44;100.00
33280;BME280;20403;43.114;12.434;2023-01-31T09:56:13;99783.69;;;11.46;100.00
33280;BME280;20403;43.114;12.434;2023-01-31T09:58:57;99786.44;;;11.58;100.00
33280;BME280;20403;43.114;12.434;2023-01-31T10:06:54;99781.72;;;11.67;93.91
33280;BME280;20403;43.114;12.434;2023-01-31T10:09:50;99784.19;;;11.93;84.78
33280;BME280;20403;43.114;12.434;2023-01-31T10:14:54;99777.66;;;12.28;80.99
33280;BME280;20403;43.114;12.434;2023-01-31T10:17:24;99774.03;;;12.29;73.16
33280;BME280;20403;43.114;12.434;2023-01-31T10:22:35;99776.31;;;12.99;56.94
33280;BME280;20403;43.114;12.434;2023-01-31T10:27:54;99764.69;;;12.76;53.94
33280;BME280;20403;43.114;12.434;2023-01-31T10:30:25;99758.47;;;12.89;53.25
33280;BME280;20403;43.114;12.434;2023-01-31T10:33:03;99764.34;;;13.03;51.84
33280;BME280;20403;43.114;12.434;2023-01-31T10:35:39;99758.25;;;13.09;52.32
33280;BME280;20403;43.114;12.434;2023-01-31T10:38:14;99763.16;;;12.87;53.05
33280;BME280;20403;43.114;12.434;2023-01-31T10:40:44;99751.47;;;13.20;52.49
33280;BME280;20403;43.114;12.434;2023-01-31T10:43:20;99743.72;;;13.25;44.64
33280;BME280;20403;43.114;12.434;2023-01-31T10:45:46;99744.94;;;13.41;47.29
33280;BME280;20403;43.114;12.434;2023-01-31T10:48:16;99750.66;;;13.38;49.10
33280;BME280;20403;43.114;12.434;2023-01-31T10:56:31;99738.72;;;13.65;45.81
33280;BME280;20403;43.114;12.434;2023-01-31T10:59:01;99741.16;;;13.37;43.26
33280;BME280;20403;43.114;12.434;2023-01-31T11:01:29;99733.88;;;13.09;41.85
33280;BME280;20403;43.114;12.434;2023-01-31T11:03:56;99733.50;;;13.05;43.57
33280;BME280;20403;43.114;12.434;2023-01-31T11:06:22;99730.06;;;12.93;41.87
33280;BME280;20403;43.114;12.434;2023-01-31T11:08:54;99729.53;;;13.33;46.45
33280;BME280;20403;43.114;12.434;2023-01-31T11:11:22;99716.84;;;13.60;45.65
33280;BME280;20403;43.114;12.434;2023-01-31T11:13:58;99715.25;;;13.59;42.40
33280;BME280;20403;43.114;12.434;2023-01-31T11:16:27;99718.47;;;13.84;41.73
33280;BME280;20403;43.114;12.434;2023-01-31T11:18:56;99709.69;;;14.14;39.23
33280;BME280;20403;43.114;12.434;2023-01-31T11:21:29;99701.22;;;14.36;40.23
33280;BME280;20403;43.114;12.434;2023-01-31T11:24:04;99705.63;;;14.59;38.61
33280;BME280;20403;43.114;12.434;2023-01-31T11:26:33;99707.81;;;14.38;38.89
33280;BME280;20403;43.114;12.434;2023-01-31T11:28:59;99706.22;;;14.37;39.26
33280;BME280;20403;43.114;12.434;2023-01-31T11:31:31;99703.81;;;14.47;39.25
33280;BME280;20403;43.114;12.434;2023-01-31T11:33:59;99706.25;;;14.78;39.12
33280;BME280;20403;43.114;12.434;2023-01-31T11:36:30;99707.34;;;14.94;38.57
33280;BME280;20403;43.114;12.434;2023-01-31T11:38:56;99700.38;;;14.87;38.18
33280;BME280;20403;43.114;12.434;2023-01-31T11:46:42;99688.31;;;14.34;38.07
33280;BME280;20403;43.114;12.434;2023-01-31T11:49:15;99689.44;;;14.38;39.45
33280;BME280;20403;43.114;12.434;2023-01-31T11:51:44;99685.59;;;14.81;38.67
33280;BME280;20403;43.114;12.434;2023-01-31T11:54:15;99680.16;;;15.00;37.86
33280;BME280;20403;43.114;12.434;2023-01-31T11:56:42;99672.34;;;15.22;37.70
33280;BME280;20403;43.114;12.434;2023-01-31T11:59:15;99677.88;;;15.37;37.18
33280;BME280;20403;43.114;12.434;2023-01-31T12:01:50;99680.00;;;15.57;35.47
33280;BME280;20403;43.114;12.434;2023-01-31T12:04:31;99677.38;;;15.57;36.41
33280;BME280;20403;43.114;12.434;2023-01-31T12:07:26;99678.09;;;15.52;36.12
33280;BME280;20403;43.114;12.434;2023-01-31T12:09:53;99676.44;;;15.46;35.06
33280;BME280;20403;43.114;12.434;2023-01-31T12:12:32;99677.13;;;15.25;35.13
33280;BME280;20403;43.114;12.434;2023-01-31T12:15:00;99680.78;;;15.07;34.53
33280;BME280;20403;43.114;12.434;2023-01-31T12:17:28;99683.88;;;15.04;37.79
33280;BME280;20403;43.114;12.434;2023-01-31T12:23:20;99681.16;;;14.99;34.00
33280;BME280;20403;43.114;12.434;2023-01-31T12:34:35;99680.31;;;15.10;34.12
33280;BME280;20403;43.114;12.434;2023-01-31T12:37:09;99684.97;;;14.91;35.00
33280;BME280;20403;43.114;12.434;2023-01-31T12:50:25;99665.47;;;15.04;33.22
33280;BME280;20403;43.114;12.434;2023-01-31T12:53:14;99664.00;;;15.25;31.67
33280;BME280;20403;43.114;12.434;2023-01-31T13:07:08;99659.94;;;15.34;32.67
33280;BME280;20403;43.114;12.434;2023-01-31T13:09:36;99653.00;;;15.45;31.44
33280;BME280;20403;43.114;12.434;2023-01-31T13:12:17;99657.41;;;15.56;32.88
33280;BME280;20403;43.114;12.434;2023-01-31T13:14:51;99656.91;;;15.42;33.21
33280;BME280;20403;43.114;12.434;2023-01-31T13:17:26;99650.81;;;15.37;33.93
33280;BME280;20403;43.114;12.434;2023-01-31T13:22:48;99654.75;;;15.05;32.87
33280;BME280;20403;43.114;12.434;2023-01-31T13:25:38;99640.91;;;15.10;30.70
33280;BME280;20403;43.114;12.434;2023-01-31T13:30:50;99647.44;;;15.24;32.57
33280;BME280;20403;43.114;12.434;2023-01-31T13:34:10;99654.81;;;14.94;32.55
33280;BME280;20403;43.114;12.434;2023-01-31T13:36:35;99642.59;;;15.16;32.81
33280;BME280;20403;43.114;12.434;2023-01-31T13:39:12;99641.88;;;15.21;34.78
33280;BME280;20403;43.114;12.434;2023-01-31T13:41:38;99647.97;;;14.92;31.96
33280;BME280;20403;43.114;12.434;2023-01-31T13:44:04;99649.03;;;14.63;31.58
33280;BME280;20403;43.114;12.434;2023-01-31T13:49:30;99653.63;;;14.56;38.98
33280;BME280;20403;43.114;12.434;2023-01-31T13:52:01;99660.69;;;14.55;39.53
33280;BME280;20403;43.114;12.434;2023-01-31T13:54:44;99661.16;;;14.40;42.29
33280;BME280;20403;43.114;12.434;2023-01-31T13:57:39;99669.28;;;14.27;43.33
33280;BME280;20403;43.114;12.434;2023-01-31T14:13:47;99665.09;;;13.32;46.98
33280;BME280;20403;43.114;12.434;2023-01-31T14:16:39;99659.53;;;13.10;48.20
33280;BME280;20403;43.114;12.434;2023-01-31T14:29:44;99677.34;;;12.22;49.76
33280;BME280;20403;43.114;12.434;2023-01-31T14:34:55;99672.53;;;11.75;51.84
33280;BME280;20403;43.114;12.434;2023-01-31T15:05:00;99674.28;;;9.96;72.40
33280;BME280;20403;43.114;12.434;2023-01-31T15:07:27;99669.69;;;9.78;75.78
33280;BME280;20403;43.114;12.434;2023-01-31T15:09:52;99677.50;;;9.65;81.26
33280;BME280;20403;43.114;12.434;2023-01-31T15:12:53;99678.31;;;9.72;82.03
33280;BME280;20403;43.114;12.434;2023-01-31T15:15:37;99681.31;;;9.56;77.88
33280;BME280;20403;43.114;12.434;2023-01-31T15:18:13;99685.31;;;9.58;79.44
33280;BME280;20403;43.114;12.434;2023-01-31T15:20:42;99688.34;;;9.62;100.00
33280;BME280;20403;43.114;12.434;2023-01-31T15:23:16;99692.72;;;9.48;94.73
33280;BME280;20403;43.114;12.434;2023-01-31T15:25:44;99687.91;;;9.45;100.00
33280;BME280;20403;43.114;12.434;2023-01-31T15:28:20;99686.50;;;9.22;97.62
33280;BME280;20403;43.114;12.434;2023-01-31T15:30:47;99689.50;;;9.13;100.00
33280;BME280;20403;43.114;12.434;2023-01-31T15:38:54;99697.38;;;8.78;100.00
33280;BME280;20403;43.114;12.434;2023-01-31T15:41:37;99703.16;;;8.67;100.00
33280;BME280;20403;43.114;12.434;2023-01-31T15:44:23;99706.50;;;8.54;100.00
33280;BME280;20403;43.114;12.434;2023-01-31T15:46:54;99717.66;;;8.48;100.00
33280;BME280;20403;43.114;12.434;2023-01-31T15:54:33;99723.78;;;8.05;100.00
33280;BME280;20403;43.114;12.434;2023-01-31T15:56:59;99726.88;;;7.94;100.00
33280;BME280;20403;43.114;12.434;2023-01-31T15:59:27;99729.56;;;7.79;100.00
33280;BME280;20403;43.114;12.434;2023-01-31T16:01:57;99732.16;;;7.79;100.00
33280;BME280;20403;43.114;12.434;2023-01-31T16:04:24;99737.41;;;7.64;100.00
33280;BME280;20403;43.114;12.434;2023-01-31T16:06:49;99742.56;;;7.57;100.00
33280;BME280;20403;43.114;12.434;2023-01-31T16:09:28;99743.94;;;7.53;100.00
33280;BME280;20403;43.114;12.434;2023-01-31T16:11:55;99749.22;;;7.45;100.00
33280;BME280;20403;43.114;12.434;2023-01-31T16:14:22;99750.16;;;7.38;100.00
33280;BME280;20403;43.114;12.434;2023-01-31T16:16:51;99747.44;;;7.24;100.00
33280;BME280;20403;43.114;12.434;2023-01-31T16:19:26;99755.81;;;7.05;100.00
33280;BME280;20403;43.114;12.434;2023-01-31T16:21:53;99765.81;;;6.93;100.00
33280;BME280;20403;43.114;12.434;2023-01-31T16:24:20;99765.00;;;6.92;100.00
33280;BME280;20403;43.114;12.434;2023-01-31T16:26:54;99759.75;;;6.86;100.00
33280;BME280;20403;43.114;12.434;2023-01-31T16:29:32;99765.66;;;6.80;100.00
33280;BME280;20403;43.114;12.434;2023-01-31T16:32:02;99768.25;;;6.80;100.00
33280;BME280;20403;43.114;12.434;2023-01-31T16:34:30;99778.16;;;6.46;100.00
33280;BME280;20403;43.114;12.434;2023-01-31T16:36:59;99781.50;;;6.40;100.00
33280;BME280;20403;43.114;12.434;2023-01-31T16:39:46;99786.66;;;6.40;100.00
33280;BME280;20403;43.114;12.434;2023-01-31T16:44:44;99797.47;;;6.29;100.00
33280;BME280;20403;43.114;12.434;2023-01-31T16:47:46;99793.44;;;6.26;100.00
33280;BME280;20403;43.114;12.434;2023-01-31T16:53:07;99783.97;;;5.96;100.00
33280;BME280;20403;43.114;12.434;2023-01-31T16:55:38;99785.47;;;5.90;100.00
33280;BME280;20403;43.114;12.434;2023-01-31T16:58:03;99787.41;;;5.88;100.00
33280;BME280;20403;43.114;12.434;2023-01-31T17:02:59;99799.56;;;5.64;100.00
33280;BME280;20403;43.114;12.434;2023-01-31T17:05:25;99797.34;;;5.53;100.00
33280;BME280;20403;43.114;12.434;2023-01-31T17:07:57;99796.09;;;5.49;100.00
33280;BME280;20403;43.114;12.434;2023-01-31T17:10:26;99797.75;;;5.42;100.00
33280;BME280;20403;43.114;12.434;2023-01-31T17:13:07;99798.00;;;5.24;100.00
33280;BME280;20403;43.114;12.434;2023-01-31T17:15:39;99792.56;;;5.42;100.00
33280;BME280;20403;43.114;12.434;2023-01-31T17:18:05;99793.72;;;5.39;100.00
33280;BME280;20403;43.114;12.434;2023-01-31T17:20:30;99792.97;;;5.54;100.00
33280;BME280;20403;43.114;12.434;2023-01-31T17:22:55;99793.09;;;5.60;100.00
33280;BME280;20403;43.114;12.434;2023-01-31T17:25:25;99794.13;;;5.51;100.00
33280;BME280;20403;43.114;12.434;2023-01-31T17:27:51;99798.03;;;5.70;100.00
33280;BME280;20403;43.114;12.434;2023-01-31T17:30:19;99790.16;;;5.86;100.00
33280;BME280;20403;43.114;12.434;2023-01-31T17:32:45;99793.38;;;5.65;100.00
33280;BME280;20403;43.114;12.434;2023-01-31T17:35:19;99787.94;;;5.60;100.00
33280;BME280;20403;43.114;12.434;2023-01-31T17:37:47;99781.56;;;5.48;100.00
33280;BME280;20403;43.114;12.434;2023-01-31T17:40:12;99786.84;;;5.23;100.00
33280;BME280;20403;43.114;12.434;2023-01-31T17:42:38;99794.81;;;5.14;100.00
33280;BME280;20403;43.114;12.434;2023-01-31T17:45:04;99795.50;;;5.08;100.00
33280;BME280;20403;43.114;12.434;2023-01-31T17:47:30;99796.50;;;4.98;100.00
33280;BME280;20403;43.114;12.434;2023-01-31T17:49:55;99797.34;;;4.91;100.00
33280;BME280;20403;43.114;12.434;2023-01-31T17:52:22;99792.69;;;4.86;100.00
33280;BME280;20403;43.114;12.434;2023-01-31T17:54:48;99793.69;;;4.77;100.00
33280;BME280;20403;43.114;12.434;2023-01-31T17:57:13;99797.09;;;4.69;100.00
33280;BME280;20403;43.114;12.434;2023-01-31T17:59:39;99804.84;;;4.53;100.00
33280;BME280;20403;43.114;12.434;2023-01-31T18:02:04;99806.34;;;4.39;100.00
33280;BME280;20403;43.114;12.434;2023-01-31T18:04:29;99803.28;;;4.35;100.00
33280;BME280;20403;43.114;12.434;2023-01-31T18:06:55;99802.00;;;4.39;100.00
33280;BME280;20403;43.114;12.434;2023-01-31T18:09:20;99808.28;;;4.53;100.00
33280;BME280;20403;43.114;12.434;2023-01-31T18:11:46;99812.63;;;4.45;100.00
33280;BME280;20403;43.114;12.434;2023-01-31T18:14:12;99812.63;;;4.45;100.00
33280;BME280;20403;43.114;12.434;2023-01-31T18:16:38;99810.69;;;4.38;100.00
33280;BME280;20403;43.114;12.434;2023-01-31T18:19:04;99812.16;;;4.33;100.00
33280;BME280;20403;43.114;12.434;2023-01-31T18:21:29;99812.34;;;4.23;100.00
33280;BME280;20403;43.114;12.434;2023-01-31T18:23:55;99817.03;;;4.19;100.00
33280;BME280;20403;43.114;12.434;2023-01-31T18:26:22;99814.91;;;4.15;100.00
33280;BME280;20403;43.114;12.434;2023-01-31T18:28:48;99814.59;;;4.10;100.00
33280;BME280;20403;43.114;12.434;2023-01-31T18:31:15;99801.84;;;4.08;100.00
33280;BME280;20403;43.114;12.434;2023-01-31T18:33:42;99804.28;;;4.02;100.00
33280;BME280;20403;43.114;12.434;2023-01-31T18:36:13;99810.59;;;4.07;100.00
33280;BME280;20403;43.114;12.434;2023-01-31T18:38:43;99817.19;;;3.93;100.00
33280;BME280;20403;43.114;12.434;2023-01-31T18:41:11;99820.25;;;3.89;100.00
33280;BME280;20403;43.114;12.434;2023-01-31T18:43:39;99827.34;;;3.87;100.00
33280;BME280;20403;43.114;12.434;2023-01-31T18:46:05;99827.50;;;3.85;100.00
33280;BME280;20403;43.114;12.434;2023-01-31T18:48:31;99829.59;;;3.90;100.00
33280;BME280;20403;43.114;12.434;2023-01-31T18:51:00;99833.31;;;3.79;100.00
33280;BME280;20403;43.114;12.434;2023-01-31T18:53:31;99836.84;;;3.78;100.00
33280;BME280;20403;43.114;12.434;2023-01-31T18:56:00;99837.16;;;3.83;100.00
33280;BME280;20403;43.114;12.434;2023-01-31T18:58:32;99833.94;;;3.81;100.00
33280;BME280;20403;43.114;12.434;2023-01-31T19:01:08;99843.94;;;3.84;100.00
33280;BME280;20403;43.114;12.434;2023-01-31T19:03:34;99850.72;;;3.85;100.00
33280;BME280;20403;43.114;12.434;2023-01-31T19:08:33;99864.06;;;3.72;100.00